Time,TemperatureF,DewpointF,PressureIn,WindDirection,WindDirectionDegrees,WindSpeedMPH,WindSpeedGustMPH,Humidity,HourlyPrecipIn,Conditions,Clouds,dailyrainin,SoftwareType,DateUTC
2013-08-04 00:14:00,63.5,58.0,29.71,WSW,252,0.0,-999.0,83,-99.99,,,0.00,weatherlink.com 1.10,2013-08-04 04:14:00,
2013-08-04 00:29:00,63.3,58.0,29.71,WSW,250,0.0,-999.0,82,-99.99,,,0.00,weatherlink.com 1.10,2013-08-04 04:29:00,
2013-08-04 00:44:00,63.0,58.0,29.70,WSW,249,0.0,-999.0,83,-99.99,,,0.00,weatherlink.com 1.10,2013-08-04 04:44:00,
2013-08-04 00:59:00,62.7,58.0,29.70,WSW,249,0.0,-999.0,84,-99.99,,,0.00,weatherlink.com 1.10,2013-08-04 04:59:00,
2013-08-04 01:14:00,62.1,58.0,29.70,WSW,249,0.0,-999.0,86,-99.99,,,0.00,weatherlink.com 1.10,2013-08-04 05:14:00,
2013-08-04 01:29:00,61.8,57.0,29.69,WSW,249,0.0,-999.0,85,-99.99,,,0.00,weatherlink.com 1.10,2013-08-04 05:29:00,
2013-08-04 01:44:00,61.4,57.0,29.69,WSW,249,0.0,-999.0,85,-99.99,,,0.00,weatherlink.com 1.10,2013-08-04 05:44:00,
2013-08-04 01:59:00,61.2,57.0,29.69,WSW,249,0.0,-999.0,85,-99.99,,,0.00,weatherlink.com 1.10,2013-08-04 05:59:00,
2013-08-04 02:14:00,60.6,57.0,29.69,WSW,249,0.0,-999.0,87,-99.99,,,0.00,weatherlink.com 1.10,2013-08-04 06:14:00,
2013-08-04 02:29:00,59.8,56.0,29.68,WSW,249,0.0,-999.0,88,-99.99,,,0.00,weatherlink.com 1.10,2013-08-04 06:29:00,
2013-08-04 02:44:00,60.0,57.0,29.69,WSW,250,0.0,-999.0,88,-99.99,,,0.00,weatherlink.com 1.10,2013-08-04 06:44:00,
2013-08-04 02:59:00,60.3,57.0,29.69,WSW,244,0.0,-999.0,87,-99.99,,,0.00,weatherlink.com 1.10,2013-08-04 06:59:00,
2013-08-04 03:14:00,60.2,56.0,29.68,WSW,242,0.0,-999.0,86,-99.99,,,0.00,weatherlink.com 1.10,2013-08-04 07:14:00,
2013-08-04 03:29:00,59.7,56.0,29.69,WSW,242,0.0,-999.0,87,-99.99,,,0.00,weatherlink.com 1.10,2013-08-04 07:29:00,
2013-08-04 03:44:00,59.3,56.0,29.69,WSW,241,0.0,-999.0,88,-99.99,,,0.00,weatherlink.com 1.10,2013-08-04 07:44:00,
2013-08-04 03:59:00,59.1,56.0,29.68,WSW,241,0.0,-999.0,88,-99.99,,,0.00,weatherlink.com 1.10,2013-08-04 07:59:00,
2013-08-04 04:14:00,59.3,56.0,29.69,WSW,241,0.0,-999.0,88,-99.99,,,0.00,weatherlink.com 1.10,2013-08-04 08:14:00,
2013-08-04 04:29:00,59.7,56.0,29.69,SW,222,0.0,-999.0,87,-99.99,,,0.00,weatherlink.com 1.10,2013-08-04 08:29:00,
2013-08-04 04:44:00,59.8,56.0,29.70,SW,222,0.0,-999.0,86,-99.99,,,0.00,weatherlink.com 1.10,2013-08-04 08:44:00,
2013-08-04 04:59:00,59.1,56.0,29.69,SW,222,0.0,-999.0,88,-99.99,,,0.00,weatherlink.com 1.10,2013-08-04 08:59:00,
2013-08-04 05:14:00,58.5,55.0,29.70,SW,222,0.0,-999.0,89,-99.99,,,0.00,weatherlink.com 1.10,2013-08-04 09:14:00,
2013-08-04 05:29:00,58.9,56.0,29.70,SW,226,0.0,-999.0,89,-99.99,,,0.00,weatherlink.com 1.10,2013-08-04 09:29:00,
2013-08-04 05:44:00,59.3,56.0,29.70,SW,236,0.0,-999.0,88,-99.99,,,0.00,weatherlink.com 1.10,2013-08-04 09:44:00,
2013-08-04 05:59:00,59.4,56.0,29.70,SSW,209,0.0,-999.0,88,-99.99,,,0.00,weatherlink.com 1.10,2013-08-04 09:59:00,
2013-08-04 06:14:00,59.8,56.0,29.70,SSW,210,0.0,-999.0,87,-99.99,,,0.00,weatherlink.com 1.10,2013-08-04 10:14:00,
2013-08-04 06:29:00,60.7,57.0,29.70,SSW,210,0.0,-999.0,86,-99.99,,,0.00,weatherlink.com 1.10,2013-08-04 10:29:00,
2013-08-04 06:44:00,61.6,57.0,29.70,North,360,0.0,-999.0,85,-99.99,,,0.00,weatherlink.com 1.10,2013-08-04 10:44:00,
2013-08-04 06:59:00,63.1,58.0,29.70,NW,316,0.0,-999.0,83,-99.99,,,0.00,weatherlink.com 1.10,2013-08-04 10:59:00,
2013-08-04 07:14:00,64.4,59.0,29.70,WNW,298,0.0,-999.0,82,-99.99,,,0.00,weatherlink.com 1.10,2013-08-04 11:14:00,
2013-08-04 07:29:00,65.4,59.0,29.71,NE,34,0.0,-999.0,80,-99.99,,,0.00,weatherlink.com 1.10,2013-08-04 11:29:00,
2013-08-04 07:44:00,66.0,59.0,29.71,SSW,199,0.0,-999.0,79,-99.99,,,0.00,weatherlink.com 1.10,2013-08-04 11:44:00,
2013-08-04 07:59:00,67.1,60.0,29.71,North,360,0.0,-999.0,78,-99.99,,,0.00,weatherlink.com 1.10,2013-08-04 11:59:00,
2013-08-04 08:14:00,68.2,60.0,29.71,North,360,0.0,-999.0,74,-99.99,,,0.00,weatherlink.com 1.10,2013-08-04 12:14:00,
2013-08-04 08:29:00,68.5,60.0,29.71,NW,311,0.0,-999.0,75,-99.99,,,0.00,weatherlink.com 1.10,2013-08-04 12:29:00,
2013-08-04 08:44:00,68.7,60.0,29.71,East,93,0.0,-999.0,73,-99.99,,,0.00,weatherlink.com 1.10,2013-08-04 12:44:00,
2013-08-04 08:59:00,69.4,60.0,29.70,NNE,28,0.0,-999.0,72,-99.99,,,0.00,weatherlink.com 1.10,2013-08-04 12:59:00,
2013-08-04 09:14:00,69.9,60.0,29.70,North,360,0.0,-999.0,71,-99.99,,,0.00,weatherlink.com 1.10,2013-08-04 13:14:00,
2013-08-04 09:29:00,70.7,60.0,29.70,NNE,17,0.0,-999.0,69,-99.99,,,0.00,weatherlink.com 1.10,2013-08-04 13:29:00,
2013-08-04 09:44:00,71.2,62.0,29.70,North,360,0.0,-999.0,72,-99.99,,,0.00,weatherlink.com 1.10,2013-08-04 13:44:00,
2013-08-04 09:59:00,72.0,61.0,29.70,North,360,0.0,-999.0,68,-99.99,,,0.00,weatherlink.com 1.10,2013-08-04 13:59:00,
2013-08-04 10:14:00,72.8,61.0,29.70,North,360,0.0,-999.0,66,-99.99,,,0.00,weatherlink.com 1.10,2013-08-04 14:14:00,
2013-08-04 10:29:00,73.5,61.0,29.70,North,360,0.0,-999.0,65,-99.99,,,0.00,weatherlink.com 1.10,2013-08-04 14:29:00,
2013-08-04 10:44:00,73.8,61.0,29.70,North,360,0.0,-999.0,64,-99.99,,,0.00,weatherlink.com 1.10,2013-08-04 14:44:00,
2013-08-04 10:59:00,74.6,63.0,29.70,North,360,0.0,-999.0,67,-99.99,,,0.00,weatherlink.com 1.10,2013-08-04 14:59:00,
2013-08-04 11:14:00,74.8,60.0,29.70,North,360,0.0,-999.0,60,-99.99,,,0.00,weatherlink.com 1.10,2013-08-04 15:14:00,
2013-08-04 11:29:00,75.1,61.0,29.70,North,360,0.0,-999.0,61,-99.99,,,0.00,weatherlink.com 1.10,2013-08-04 15:29:00,
2013-08-04 11:44:00,75.8,61.0,29.70,North,360,0.0,-999.0,61,-99.99,,,0.00,weatherlink.com 1.10,2013-08-04 15:44:00,
2013-08-04 11:59:00,76.0,61.0,29.69,North,360,0.0,-999.0,61,-99.99,,,0.00,weatherlink.com 1.10,2013-08-04 15:59:00,
2013-08-04 12:14:00,76.2,61.0,29.69,NE,38,0.0,-999.0,60,-99.99,,,0.00,weatherlink.com 1.10,2013-08-04 16:14:00,
2013-08-04 12:29:00,76.4,63.0,29.68,North,360,0.0,-999.0,63,-99.99,,,0.00,weatherlink.com 1.10,2013-08-04 16:29:00,
2013-08-04 12:44:00,77.2,62.0,29.68,North,360,0.0,-999.0,60,-99.99,,,0.00,weatherlink.com 1.10,2013-08-04 16:44:00,
2013-08-04 12:59:00,77.7,61.0,29.68,North,360,0.0,-999.0,57,-99.99,,,0.00,weatherlink.com 1.10,2013-08-04 16:59:00,
2013-08-04 13:14:00,77.9,61.0,29.68,North,360,0.0,-999.0,56,-99.99,,,0.00,weatherlink.com 1.10,2013-08-04 17:14:00,
2013-08-04 13:29:00,77.6,60.0,29.67,North,360,0.0,-999.0,55,-99.99,,,0.00,weatherlink.com 1.10,2013-08-04 17:29:00,
2013-08-04 13:44:00,78.0,59.0,29.67,North,360,0.0,-999.0,53,-99.99,,,0.00,weatherlink.com 1.10,2013-08-04 17:44:00,
2013-08-04 13:59:00,78.0,58.0,29.67,North,360,0.0,-999.0,50,-99.99,,,0.00,weatherlink.com 1.10,2013-08-04 17:59:00,
2013-08-04 14:14:00,77.4,60.0,29.66,North,360,0.0,-999.0,55,-99.99,,,0.00,weatherlink.com 1.10,2013-08-04 18:14:00,
2013-08-04 14:29:00,78.7,62.0,29.66,North,360,0.0,-999.0,56,-99.99,,,0.00,weatherlink.com 1.10,2013-08-04 18:29:00,
2013-08-04 14:44:00,78.0,61.0,29.66,North,360,0.0,-999.0,57,-99.99,,,0.00,weatherlink.com 1.10,2013-08-04 18:44:00,
2013-08-04 14:59:00,78.4,61.0,29.66,North,360,0.0,-999.0,55,-99.99,,,0.00,weatherlink.com 1.10,2013-08-04 18:59:00,
2013-08-04 15:14:00,78.2,59.0,29.66,North,360,0.0,-999.0,51,-99.99,,,0.00,weatherlink.com 1.10,2013-08-04 19:14:00,
2013-08-04 15:29:00,77.8,61.0,29.66,North,360,0.0,-999.0,56,-99.99,,,0.00,weatherlink.com 1.10,2013-08-04 19:29:00,
2013-08-04 15:44:00,77.4,62.0,29.66,North,360,0.0,-999.0,59,-99.99,,,0.00,weatherlink.com 1.10,2013-08-04 19:44:00,
2013-08-04 15:59:00,76.7,61.0,29.66,North,360,0.0,-999.0,58,-99.99,,,0.00,weatherlink.com 1.10,2013-08-04 19:59:00,
2013-08-04 16:14:00,76.9,58.0,29.66,North,360,0.0,-999.0,52,-99.99,,,0.00,weatherlink.com 1.10,2013-08-04 20:14:00,
2013-08-04 16:29:00,77.5,60.0,29.66,North,360,0.0,-999.0,56,-99.99,,,0.00,weatherlink.com 1.10,2013-08-04 20:29:00,
2013-08-04 16:44:00,76.2,59.0,29.66,East,80,0.0,-999.0,56,-99.99,,,0.00,weatherlink.com 1.10,2013-08-04 20:44:00,
2013-08-04 16:59:00,73.5,59.0,29.68,NNE,29,0.0,-999.0,60,-99.99,,,0.00,weatherlink.com 1.10,2013-08-04 20:59:00,
2013-08-04 17:14:00,72.2,57.0,29.68,WNW,300,0.0,-999.0,60,-99.99,,,0.00,weatherlink.com 1.10,2013-08-04 21:14:00,
2013-08-04 17:29:00,71.3,58.0,29.68,WNW,295,0.0,-999.0,63,-99.99,,,0.00,weatherlink.com 1.10,2013-08-04 21:29:00,
2013-08-04 17:44:00,71.5,59.0,29.69,NW,308,0.0,-999.0,64,-99.99,,,0.00,weatherlink.com 1.10,2013-08-04 21:44:00,
2013-08-04 17:59:00,72.0,59.0,29.68,NNE,12,0.0,-999.0,63,-99.99,,,0.00,weatherlink.com 1.10,2013-08-04 21:59:00,
2013-08-04 18:14:00,72.1,58.0,29.68,WNW,292,0.0,-999.0,62,-99.99,,,0.00,weatherlink.com 1.10,2013-08-04 22:14:00,
2013-08-04 18:29:00,71.7,58.0,29.68,West,281,0.0,-999.0,63,-99.99,,,0.00,weatherlink.com 1.10,2013-08-04 22:29:00,
2013-08-04 18:44:00,71.2,57.0,29.69,NNE,22,0.0,-999.0,62,-99.99,,,0.00,weatherlink.com 1.10,2013-08-04 22:44:00,
2013-08-04 18:59:00,70.4,58.0,29.69,North,355,0.0,-999.0,64,-99.99,,,0.00,weatherlink.com 1.10,2013-08-04 22:59:00,
2013-08-04 19:14:00,69.6,57.0,29.70,NW,309,0.0,-999.0,65,-99.99,,,0.00,weatherlink.com 1.10,2013-08-04 23:14:00,
2013-08-04 19:29:00,68.8,57.0,29.71,North,5,0.0,-999.0,67,-99.99,,,0.00,weatherlink.com 1.10,2013-08-04 23:29:00,
2013-08-04 19:44:00,68.2,57.0,29.72,NW,323,0.0,-999.0,68,-99.99,,,0.00,weatherlink.com 1.10,2013-08-04 23:44:00,
2013-08-04 19:59:00,67.5,57.0,29.72,WNW,301,0.0,-999.0,68,-99.99,,,0.00,weatherlink.com 1.10,2013-08-04 23:59:00,
2013-08-04 20:14:00,66.8,56.0,29.73,NNW,331,0.0,-999.0,69,-99.99,,,0.00,weatherlink.com 1.10,2013-08-05 00:14:00,
2013-08-04 20:29:00,66.2,56.0,29.74,West,263,0.0,-999.0,70,-99.99,,,0.00,weatherlink.com 1.10,2013-08-05 00:29:00,
2013-08-04 20:44:00,65.6,56.0,29.74,NW,320,0.0,-999.0,70,-99.99,,,0.00,weatherlink.com 1.10,2013-08-05 00:44:00,
2013-08-04 20:59:00,65.0,55.0,29.74,NW,312,0.0,-999.0,70,-99.99,,,0.00,weatherlink.com 1.10,2013-08-05 00:59:00,
2013-08-04 21:14:00,64.3,56.0,29.74,North,9,0.0,-999.0,74,-99.99,,,0.00,weatherlink.com 1.10,2013-08-05 01:14:00,
2013-08-04 21:29:00,63.8,56.0,29.75,SW,219,0.0,-999.0,76,-99.99,,,0.00,weatherlink.com 1.10,2013-08-05 01:29:00,
2013-08-04 21:44:00,63.3,56.0,29.75,NW,313,0.0,-999.0,78,-99.99,,,0.00,weatherlink.com 1.10,2013-08-05 01:44:00,
2013-08-04 21:59:00,62.9,56.0,29.75,NNE,31,0.0,-999.0,77,-99.99,,,0.00,weatherlink.com 1.10,2013-08-05 01:59:00,
2013-08-04 22:14:00,62.5,55.0,29.75,NW,326,0.0,-999.0,77,-99.99,,,0.00,weatherlink.com 1.10,2013-08-05 02:14:00,
2013-08-04 22:29:00,62.3,54.0,29.75,North,355,0.0,-999.0,75,-99.99,,,0.00,weatherlink.com 1.10,2013-08-05 02:29:00,
2013-08-04 22:44:00,62.1,54.0,29.76,NE,37,0.0,-999.0,75,-99.99,,,0.00,weatherlink.com 1.10,2013-08-05 02:44:00,
2013-08-04 22:59:00,61.9,54.0,29.76,ENE,59,0.0,-999.0,76,-99.99,,,0.00,weatherlink.com 1.10,2013-08-05 02:59:00,
2013-08-04 23:14:00,61.7,54.0,29.76,North,355,0.0,-999.0,76,-99.99,,,0.00,weatherlink.com 1.10,2013-08-05 03:14:00,
2013-08-04 23:29:00,61.6,54.0,29.76,ESE,120,0.0,-999.0,77,-99.99,,,0.00,weatherlink.com 1.10,2013-08-05 03:29:00,
2013-08-04 23:44:00,61.6,54.0,29.76,NW,323,0.0,-999.0,77,-99.99,,,0.00,weatherlink.com 1.10,2013-08-05 03:44:00,
2013-08-04 23:59:00,61.2,54.0,29.76,NNE,15,0.0,-999.0,77,-99.99,,,0.00,weatherlink.com 1.10,2013-08-05 03:59:00,